createdAt,value
2022-10-05T00:00:50.841Z,6.63
2022-10-05T00:03:17.612Z,6.35
2022-10-05T00:05:46.331Z,7.03
2022-10-05T00:08:14.653Z,7.07
2022-10-05T00:10:42.356Z,7.22
2022-10-05T00:13:24.011Z,7.10
2022-10-05T00:15:52.845Z,7.03
2022-10-05T00:18:21.215Z,6.63
2022-10-05T00:20:49.047Z,7.20
2022-10-05T00:23:26.439Z,7.82
2022-10-05T00:25:53.119Z,7.53
2022-10-05T00:28:30.020Z,7.68
2022-10-05T00:31:00.646Z,7.97
2022-10-05T00:33:28.174Z,7.00
2022-10-05T00:35:55.593Z,6.95
2022-10-05T00:38:22.718Z,6.85
2022-10-05T00:41:11.535Z,8.43
2022-10-05T00:44:07.504Z,7.45
2022-10-05T00:46:49.315Z,7.75
2022-10-05T00:51:49.766Z,7.70
2022-10-05T00:54:45.154Z,7.68
2022-10-05T00:57:33.844Z,8.50
2022-10-05T01:00:13.374Z,7.97
2022-10-05T01:03:07.486Z,7.45
2022-10-05T01:05:51.697Z,8.20
2022-10-05T01:08:42.891Z,7.65
2022-10-05T01:11:24.819Z,7.90
2022-10-05T01:13:55.613Z,9.18
2022-10-05T01:16:35.988Z,7.60
2022-10-05T01:19:05.667Z,8.15
2022-10-05T01:21:49.565Z,8.77
2022-10-05T01:24:53.317Z,9.10
2022-10-05T01:27:31.815Z,8.02
2022-10-05T01:30:20.214Z,8.45
2022-10-05T01:33:13.994Z,8.98
2022-10-05T01:35:43.664Z,8.60
2022-10-05T01:38:39.166Z,9.55
2022-10-05T01:41:11.911Z,9.68
2022-10-05T01:44:11.664Z,8.93
2022-10-05T01:47:09.798Z,8.85
2022-10-05T01:49:50.649Z,8.85
2022-10-05T01:52:54.081Z,10.02
2022-10-05T01:56:10.136Z,8.52
2022-10-05T01:59:01.656Z,9.80
2022-10-05T02:01:31.147Z,9.73
2022-10-05T02:04:29.599Z,9.63
2022-10-05T02:09:41.639Z,8.90
2022-10-05T02:12:18.734Z,9.63
2022-10-05T02:14:50.665Z,9.45
2022-10-05T02:17:21.979Z,9.27
2022-10-05T02:19:59.716Z,9.98
2022-10-05T02:22:36.884Z,9.38
2022-10-05T02:25:09.644Z,9.30
2022-10-05T02:27:44.356Z,8.40
2022-10-05T02:30:16.380Z,9.13
2022-10-05T02:32:53.742Z,9.20
2022-10-05T02:35:22.360Z,8.35
2022-10-05T02:37:57.320Z,8.18
2022-10-05T02:40:45.508Z,8.88
2022-10-05T02:43:32.625Z,8.13
2022-10-05T02:46:33.560Z,8.85
2022-10-05T02:49:03.419Z,7.72
2022-10-05T02:51:42.956Z,7.85
2022-10-05T02:54:34.000Z,8.10
2022-10-05T02:57:28.518Z,8.38
2022-10-05T03:00:19.120Z,8.68
2022-10-05T03:02:52.518Z,9.57
2022-10-05T03:05:31.926Z,8.43
2022-10-05T03:08:05.396Z,8.07
2022-10-05T03:10:50.168Z,8.95
2022-10-05T03:13:41.579Z,7.75
2022-10-05T03:16:36.482Z,8.40
2022-10-05T03:19:27.826Z,8.40
2022-10-05T03:22:27.069Z,7.88
2022-10-05T03:25:26.536Z,7.65
2022-10-05T03:28:13.346Z,7.65
2022-10-05T03:31:23.436Z,7.45
2022-10-05T03:33:56.406Z,7.32
2022-10-05T03:36:47.729Z,8.45
2022-10-05T03:39:26.512Z,7.88
2022-10-05T03:42:20.073Z,7.70
2022-10-05T03:44:56.841Z,7.93
2022-10-05T03:47:52.202Z,7.70
2022-10-05T03:50:40.682Z,7.70
2022-10-05T03:53:24.883Z,9.35
2022-10-05T03:56:10.509Z,8.60
2022-10-05T03:59:00.694Z,7.63
2022-10-05T04:01:38.973Z,7.97
2022-10-05T04:04:09.645Z,7.97
2022-10-05T04:06:45.283Z,7.35
2022-10-05T04:09:30.127Z,7.18
2022-10-05T04:12:15.007Z,7.40
2022-10-05T04:14:46.943Z,7.65
2022-10-05T04:17:17.759Z,7.38
2022-10-05T04:19:51.182Z,8.23
2022-10-05T04:22:32.055Z,8.18
2022-10-05T04:25:23.158Z,9.03
2022-10-05T04:28:04.381Z,7.90
2022-10-05T04:30:34.638Z,7.78
2022-10-05T04:33:02.022Z,8.15
2022-10-05T04:35:41.223Z,8.63
2022-10-05T04:38:37.447Z,8.27
2022-10-05T04:41:55.473Z,9.02
2022-10-05T04:44:42.287Z,8.75
2022-10-05T04:47:29.578Z,8.60
2022-10-05T04:50:17.790Z,8.15
2022-10-05T04:53:20.093Z,8.07
2022-10-05T04:56:03.083Z,8.15
2022-10-05T04:58:55.289Z,9.00
2022-10-05T05:01:35.941Z,8.18
2022-10-05T05:04:26.913Z,7.80
2022-10-05T05:07:02.676Z,9.15
2022-10-05T05:09:56.050Z,7.65
2022-10-05T05:12:28.978Z,8.50
2022-10-05T05:15:22.283Z,8.25
2022-10-05T05:18:41.986Z,7.65
2022-10-05T05:21:37.903Z,7.75
2022-10-05T05:24:49.033Z,7.43
2022-10-05T05:27:38.893Z,7.65
2022-10-05T05:30:23.008Z,7.78
2022-10-05T05:33:09.471Z,8.07
2022-10-05T05:35:39.419Z,7.50
2022-10-05T05:38:14.154Z,6.97
2022-10-05T05:40:56.732Z,8.77
2022-10-05T05:43:27.593Z,8.70
2022-10-05T05:46:12.105Z,7.60
2022-10-05T05:48:42.436Z,7.65
2022-10-05T05:51:55.890Z,7.40
2022-10-05T05:54:32.948Z,7.20
2022-10-05T05:57:15.266Z,6.72
2022-10-05T06:02:22.388Z,6.75
2022-10-05T06:04:57.962Z,6.53
2022-10-05T06:07:30.818Z,7.25
2022-10-05T06:10:15.002Z,6.68
2022-10-05T06:12:52.551Z,6.22
2022-10-05T06:15:27.898Z,6.95
2022-10-05T06:17:57.832Z,5.93
2022-10-05T06:20:46.991Z,6.63
2022-10-05T06:23:20.449Z,5.60
2022-10-05T06:26:10.394Z,6.15
2022-10-05T06:28:38.417Z,6.22
2022-10-05T06:31:32.298Z,5.75
2022-10-05T06:34:27.300Z,5.82
2022-10-05T06:37:04.533Z,5.65
2022-10-05T06:40:01.109Z,5.53
2022-10-05T06:42:49.302Z,5.97
2022-10-05T06:46:07.167Z,5.05
2022-10-05T06:49:19.537Z,4.70
2022-10-05T06:52:14.889Z,4.75
2022-10-05T06:54:55.951Z,5.30
2022-10-05T06:58:05.718Z,5.03
2022-10-05T07:01:01.855Z,5.30
2022-10-05T07:04:03.040Z,4.63
2022-10-05T07:06:42.082Z,5.37
2022-10-05T07:09:14.642Z,4.75
2022-10-05T07:12:07.549Z,4.63
2022-10-05T07:14:59.924Z,4.30
2022-10-05T07:17:45.445Z,5.18
2022-10-05T07:20:19.740Z,4.00
2022-10-05T07:23:02.754Z,4.88
2022-10-05T07:25:36.497Z,4.32
2022-10-05T07:28:09.240Z,5.05
2022-10-05T07:30:57.617Z,4.35
2022-10-05T07:33:45.802Z,3.95
2022-10-05T07:36:55.465Z,3.90
2022-10-05T07:40:01.950Z,4.30
2022-10-05T07:43:04.983Z,3.72
2022-10-05T07:45:46.664Z,4.22
2022-10-05T07:48:32.987Z,4.05
2022-10-05T07:51:06.433Z,4.25
2022-10-05T07:53:39.030Z,4.65
2022-10-05T07:56:25.627Z,3.58
2022-10-05T07:59:01.640Z,4.50
2022-10-05T08:01:34.240Z,4.28
2022-10-05T08:04:11.030Z,4.20
2022-10-05T08:06:38.034Z,3.50
2022-10-05T08:09:28.762Z,4.07
2022-10-05T08:12:01.264Z,4.10
2022-10-05T08:15:05.503Z,3.75
2022-10-05T08:17:44.091Z,3.53
2022-10-05T08:20:44.609Z,3.15
2022-10-05T08:23:25.889Z,4.07
2022-10-05T08:26:17.608Z,3.38
2022-10-05T08:29:05.003Z,3.67
2022-10-05T08:31:41.733Z,3.67
2022-10-05T08:34:23.465Z,3.22
2022-10-05T08:39:30.772Z,3.45
2022-10-05T08:42:16.016Z,3.10
2022-10-05T08:45:01.846Z,3.40
2022-10-05T08:47:47.111Z,3.45
2022-10-05T08:50:34.023Z,3.20
2022-10-05T08:53:19.644Z,3.60
2022-10-05T08:56:04.901Z,3.40
2022-10-05T08:58:52.021Z,3.15
2022-10-05T09:01:26.624Z,3.42
2022-10-05T09:04:21.717Z,2.95
2022-10-05T09:07:26.671Z,3.20
2022-10-05T09:10:20.502Z,2.97
2022-10-05T09:13:09.212Z,3.28
2022-10-05T09:16:13.790Z,2.97
2022-10-05T09:19:17.547Z,2.70
2022-10-05T09:22:15.771Z,2.88
2022-10-05T09:24:55.128Z,2.65
2022-10-05T09:27:43.478Z,2.67
2022-10-05T09:30:22.194Z,2.85
2022-10-05T09:33:27.005Z,2.65
2022-10-05T09:36:12.713Z,2.85
2022-10-05T09:38:39.414Z,2.60
2022-10-05T09:41:40.101Z,2.33
2022-10-05T09:44:31.864Z,2.28
2022-10-05T09:47:36.020Z,2.60
2022-10-05T09:50:37.798Z,2.60
2022-10-05T09:53:40.462Z,2.70
2022-10-05T09:56:38.564Z,2.50
2022-10-05T09:59:36.103Z,2.22
2022-10-05T10:02:14.373Z,2.15
2022-10-05T10:05:08.919Z,2.10
2022-10-05T10:07:56.613Z,2.05
2022-10-05T10:10:44.481Z,2.40
2022-10-05T10:13:32.848Z,2.75
2022-10-05T10:16:10.629Z,2.00
2022-10-05T10:18:56.450Z,2.08
2022-10-05T10:21:50.640Z,1.92
2022-10-05T10:24:36.215Z,2.33
2022-10-05T10:27:37.397Z,2.30
2022-10-05T10:30:36.512Z,2.30
2022-10-05T10:33:31.092Z,2.33
2022-10-05T10:36:33.704Z,2.05
2022-10-05T10:39:04.685Z,2.10
2022-10-05T10:42:03.935Z,1.90
2022-10-05T10:44:49.337Z,1.90
2022-10-05T10:47:38.145Z,2.08
2022-10-05T10:50:24.106Z,2.17
2022-10-05T10:53:05.759Z,1.83
2022-10-05T10:58:17.247Z,2.45
2022-10-05T11:01:04.185Z,1.77
2022-10-05T11:04:00.341Z,2.00
2022-10-05T11:07:08.852Z,1.85
2022-10-05T11:09:53.596Z,2.10
2022-10-05T11:12:39.753Z,1.83
2022-10-05T11:15:46.950Z,1.70
2022-10-05T11:18:41.390Z,2.03
2022-10-05T11:21:36.499Z,2.00
2022-10-05T11:24:24.937Z,2.10
2022-10-05T11:27:09.767Z,2.38
2022-10-05T11:30:14.983Z,2.20
2022-10-05T11:32:53.785Z,2.28
2022-10-05T11:35:38.941Z,2.20
2022-10-05T11:38:16.046Z,1.95
2022-10-05T11:40:59.062Z,2.20
2022-10-05T11:43:36.389Z,2.05
2022-10-05T11:46:34.097Z,1.90
2022-10-05T11:49:25.753Z,2.05
2022-10-05T11:52:04.292Z,2.00
2022-10-05T11:55:15.913Z,1.90
2022-10-05T11:58:07.468Z,2.15
2022-10-05T12:00:42.411Z,1.88
2022-10-05T12:03:21.151Z,2.00
2022-10-05T12:06:21.892Z,1.63
2022-10-05T12:09:26.261Z,1.77
2022-10-05T12:12:27.070Z,1.60
2022-10-05T12:15:11.837Z,1.50
2022-10-05T12:17:51.423Z,1.52
2022-10-05T12:20:42.674Z,1.95
2022-10-05T12:23:34.556Z,1.77
2022-10-05T12:28:54.137Z,1.70
2022-10-05T12:31:40.045Z,1.90
2022-10-05T12:34:40.692Z,1.52
2022-10-05T12:37:42.916Z,1.58
2022-10-05T12:40:32.300Z,1.70
2022-10-05T12:43:11.950Z,1.38
2022-10-05T12:46:12.736Z,1.65
2022-10-05T12:49:13.853Z,1.42
2022-10-05T12:52:01.412Z,1.67
2022-10-05T12:55:10.125Z,1.60
2022-10-05T12:57:58.468Z,1.60
2022-10-05T13:00:25.380Z,1.60
2022-10-05T13:03:01.715Z,1.30
2022-10-05T13:06:03.990Z,1.58
2022-10-05T13:08:45.170Z,1.70
2022-10-05T13:11:32.412Z,1.20
2022-10-05T13:14:17.770Z,1.55
2022-10-05T13:16:59.529Z,1.50
2022-10-05T13:19:39.088Z,1.67
2022-10-05T13:22:23.564Z,1.73
2022-10-05T13:25:07.755Z,1.73
2022-10-05T13:27:38.988Z,1.50
2022-10-05T13:30:06.378Z,1.60
2022-10-05T13:32:47.960Z,2.10
2022-10-05T13:38:01.594Z,2.13
2022-10-05T13:40:34.020Z,2.08
2022-10-05T13:43:06.615Z,1.60
2022-10-05T13:45:52.663Z,1.60
2022-10-05T13:48:54.313Z,1.30
2022-10-05T13:51:56.383Z,1.73
2022-10-05T13:54:28.735Z,1.52
2022-10-05T13:57:05.934Z,1.40
2022-10-05T13:59:51.149Z,1.60
2022-10-05T14:02:22.300Z,1.35
2022-10-05T14:05:00.999Z,1.75
2022-10-05T14:07:38.306Z,1.67
2022-10-05T14:10:13.717Z,1.40
2022-10-05T14:12:43.403Z,1.20
2022-10-05T14:15:28.828Z,1.67
2022-10-05T14:17:55.710Z,1.50
2022-10-05T14:20:31.389Z,1.70
2022-10-05T14:23:05.840Z,1.60
2022-10-05T14:25:50.073Z,1.58
2022-10-05T14:28:29.681Z,1.38
2022-10-05T14:31:27.558Z,1.55
2022-10-05T14:33:54.278Z,1.55
2022-10-05T14:36:43.912Z,1.80
2022-10-05T14:39:14.023Z,1.50
2022-10-05T14:41:50.484Z,2.13
2022-10-05T14:47:12.037Z,1.65
2022-10-05T14:50:15.905Z,1.55
2022-10-05T14:53:10.121Z,1.58
2022-10-05T14:55:55.977Z,1.80
2022-10-05T14:58:31.904Z,1.67
2022-10-05T15:01:36.443Z,1.48
2022-10-05T15:04:22.060Z,1.77
2022-10-05T15:07:04.343Z,1.70
2022-10-05T15:09:40.803Z,1.90
2022-10-05T15:12:08.491Z,1.70
2022-10-05T15:14:39.999Z,1.50
2022-10-05T15:20:00.201Z,1.60
2022-10-05T15:22:31.707Z,1.70
2022-10-05T15:28:16.142Z,1.73
2022-10-05T15:31:00.155Z,1.90
2022-10-05T15:33:46.211Z,1.63
2022-10-05T15:36:35.398Z,1.90
2022-10-05T15:39:20.853Z,1.75
2022-10-05T15:42:02.346Z,1.60
2022-10-05T15:44:58.422Z,1.77
2022-10-05T15:47:28.105Z,1.75
2022-10-05T15:50:26.160Z,2.00
2022-10-05T15:53:10.119Z,2.10
2022-10-05T15:55:59.742Z,2.17
2022-10-05T15:58:56.825Z,1.92
2022-10-05T16:01:32.655Z,1.90
2022-10-05T16:04:23.008Z,2.10
2022-10-05T16:07:18.476Z,2.08
2022-10-05T16:10:17.043Z,2.20
2022-10-05T16:13:05.427Z,2.10
2022-10-05T16:15:49.997Z,2.00
2022-10-05T16:18:35.361Z,2.03
2022-10-05T16:21:31.372Z,2.53
2022-10-05T16:24:09.135Z,2.17
2022-10-05T16:27:03.613Z,1.95
2022-10-05T16:29:45.732Z,1.95
2022-10-05T16:32:16.250Z,2.08
2022-10-05T16:35:14.436Z,2.03
2022-10-05T16:37:41.324Z,2.00
2022-10-05T16:40:29.776Z,1.80
2022-10-05T16:43:14.606Z,3.60
2022-10-05T16:46:01.388Z,1.92
2022-10-05T16:48:46.744Z,2.10
2022-10-05T16:51:24.069Z,2.28
2022-10-05T16:54:03.916Z,1.67
2022-10-05T16:56:42.634Z,1.90
2022-10-05T16:59:46.787Z,1.90
2022-10-05T17:02:22.971Z,2.03
2022-10-05T17:05:11.474Z,2.10
2022-10-05T17:08:08.006Z,1.70
2022-10-05T17:10:59.592Z,2.25
2022-10-05T17:14:07.248Z,1.67
2022-10-05T17:16:55.708Z,2.15
2022-10-05T17:19:46.537Z,1.90
2022-10-05T17:22:39.689Z,1.80
2022-10-05T17:25:42.827Z,2.67
2022-10-05T17:28:15.736Z,2.53
2022-10-05T17:31:02.652Z,1.95
2022-10-05T17:33:31.095Z,2.20
2022-10-05T17:36:04.670Z,2.30
2022-10-05T17:38:31.429Z,3.28
2022-10-05T17:41:01.517Z,2.50
2022-10-05T17:43:32.560Z,2.08
2022-10-05T17:46:05.624Z,2.53
2022-10-05T17:49:06.541Z,2.28
2022-10-05T17:51:51.817Z,2.35
2022-10-05T17:54:38.591Z,2.70
2022-10-05T17:57:05.173Z,2.53
2022-10-05T17:59:56.811Z,2.20
2022-10-05T18:02:36.194Z,2.30
2022-10-05T18:05:12.561Z,2.60
2022-10-05T18:07:40.923Z,2.53
2022-10-05T18:10:13.340Z,2.30
2022-10-05T18:12:45.442Z,2.25
2022-10-05T18:15:24.452Z,2.25
2022-10-05T18:18:32.047Z,2.35
2022-10-05T18:21:18.317Z,2.40
2022-10-05T18:24:01.823Z,1.98
2022-10-05T18:26:49.496Z,7.47
2022-10-05T18:29:36.042Z,3.20
2022-10-05T18:32:14.244Z,2.30
2022-10-05T18:35:01.987Z,2.20
2022-10-05T18:38:22.097Z,2.38
2022-10-05T18:41:05.347Z,2.72
2022-10-05T18:43:38.849Z,2.30
2022-10-05T18:46:42.114Z,2.40
2022-10-05T18:49:31.637Z,2.13
2022-10-05T18:52:22.323Z,2.30
2022-10-05T18:55:05.426Z,2.20
2022-10-05T18:57:41.208Z,2.80
2022-10-05T19:00:18.638Z,2.38
2022-10-05T19:02:53.333Z,2.10
2022-10-05T19:05:48.477Z,1.92
2022-10-05T19:08:20.559Z,2.60
2022-10-05T19:11:15.289Z,2.03
2022-10-05T19:13:59.268Z,2.00
2022-10-05T19:16:44.489Z,2.13
2022-10-05T19:19:45.647Z,2.00
2022-10-05T19:22:53.767Z,2.47
2022-10-05T19:25:36.962Z,2.30
2022-10-05T19:28:20.439Z,2.47
2022-10-05T19:31:09.976Z,2.15
2022-10-05T19:34:16.510Z,2.00
2022-10-05T19:37:18.459Z,2.00
2022-10-05T19:42:37.055Z,2.20
2022-10-05T19:45:27.087Z,2.13
2022-10-05T19:48:01.769Z,1.52
2022-10-05T19:50:32.797Z,2.58
2022-10-05T19:53:24.098Z,1.73
2022-10-05T19:55:50.854Z,2.38
2022-10-05T19:58:29.461Z,2.00
2022-10-05T20:00:57.918Z,1.83
2022-10-05T20:03:37.860Z,1.98
2022-10-05T20:06:07.397Z,1.83
2022-10-05T20:08:43.712Z,2.30
2022-10-05T20:11:18.856Z,2.10
2022-10-05T20:14:13.593Z,2.00
2022-10-05T20:17:09.356Z,2.35
2022-10-05T20:19:57.205Z,2.00
2022-10-05T20:22:46.155Z,2.10
2022-10-05T20:25:18.672Z,2.15
2022-10-05T20:27:55.697Z,2.60
2022-10-05T20:30:27.462Z,2.67
2022-10-05T20:32:58.075Z,2.03
2022-10-05T20:35:27.698Z,2.25
2022-10-05T20:37:59.202Z,2.17
2022-10-05T20:40:28.870Z,3.47
2022-10-05T20:42:56.378Z,2.30
2022-10-05T20:45:23.071Z,2.35
2022-10-05T20:47:50.614Z,2.30
2022-10-05T20:50:17.389Z,2.28
2022-10-05T20:52:44.107Z,2.60
2022-10-05T20:55:11.559Z,2.25
2022-10-05T20:57:41.809Z,2.53
2022-10-05T21:00:10.436Z,2.40
2022-10-05T21:02:37.991Z,2.83
2022-10-05T21:05:05.207Z,2.60
2022-10-05T21:07:34.043Z,2.15
2022-10-05T21:10:02.251Z,2.50
2022-10-05T21:12:28.982Z,3.05
2022-10-05T21:14:55.745Z,2.00
2022-10-05T21:17:22.364Z,1.60
2022-10-05T21:19:49.043Z,1.67
2022-10-05T21:22:15.771Z,1.50
2022-10-05T21:24:42.387Z,1.30
2022-10-05T21:27:10.051Z,1.63
2022-10-05T21:29:36.979Z,1.40
2022-10-05T21:32:08.199Z,1.50
2022-10-05T21:34:35.001Z,1.35
2022-10-05T21:37:01.699Z,1.80
2022-10-05T21:39:28.378Z,1.33
2022-10-05T21:41:55.148Z,1.33
2022-10-05T21:44:21.865Z,1.23
2022-10-05T21:46:49.076Z,1.55
2022-10-05T21:49:18.909Z,1.40
2022-10-05T21:51:47.152Z,1.52
2022-10-05T21:54:17.357Z,1.08
2022-10-05T21:56:48.349Z,2.60
2022-10-05T21:59:18.656Z,1.27
2022-10-05T22:01:45.859Z,1.15
2022-10-05T22:04:12.673Z,1.00
2022-10-05T22:06:39.438Z,1.20
2022-10-05T22:09:06.207Z,1.02
2022-10-05T22:11:33.183Z,1.00
2022-10-05T22:14:02.904Z,1.20
2022-10-05T22:16:32.931Z,1.27
2022-10-05T22:19:03.583Z,1.00
2022-10-05T22:21:30.713Z,1.10
2022-10-05T22:23:57.430Z,1.10
2022-10-05T22:26:24.598Z,1.23
2022-10-05T22:28:54.961Z,1.27
2022-10-05T22:31:21.926Z,1.60
2022-10-05T22:33:48.843Z,1.10
2022-10-05T22:36:15.851Z,0.70
2022-10-05T22:38:42.458Z,0.80
2022-10-05T22:41:13.977Z,0.50
2022-10-05T22:43:40.670Z,0.70
2022-10-05T22:46:09.135Z,0.60
2022-10-05T22:48:35.833Z,0.88
2022-10-05T22:51:02.726Z,0.70
2022-10-05T22:53:29.346Z,0.52
2022-10-05T22:55:56.014Z,0.98
2022-10-05T22:58:22.832Z,0.73
2022-10-05T23:01:04.739Z,0.90
2022-10-05T23:03:32.618Z,0.70
2022-10-05T23:06:05.439Z,1.77
2022-10-05T23:08:33.837Z,0.90
2022-10-05T23:11:11.812Z,0.80
2022-10-05T23:13:38.716Z,0.47
2022-10-05T23:16:08.030Z,0.80
2022-10-05T23:18:35.216Z,0.63
2022-10-05T23:21:02.460Z,0.80
2022-10-05T23:23:29.091Z,0.80
2022-10-05T23:26:02.486Z,0.80
2022-10-05T23:28:29.930Z,1.00
2022-10-05T23:31:01.389Z,0.80
2022-10-05T23:33:28.629Z,0.68
2022-10-05T23:36:03.353Z,0.98
2022-10-05T23:38:30.489Z,1.73
2022-10-05T23:41:00.628Z,0.68
2022-10-05T23:43:27.618Z,0.90
2022-10-05T23:45:55.280Z,0.68
2022-10-05T23:48:22.674Z,0.85
2022-10-05T23:50:49.710Z,1.10
2022-10-05T23:53:17.466Z,1.60
2022-10-05T23:55:44.624Z,0.90
2022-10-05T23:58:12.242Z,1.33
